Time;durP1;ratioP1;P1;durP2;ratioP2;P2;SDS_P1;SDS_P2;PMS_P1;PMS_P2;Temp;Humidity;BMP_temperature;BMP_pressure;BME280_temperature;BME280_humidity;BME280_pressure;Samples;Min_cycle;Max_cycle;Signal;HPM_P1;HPM_P2
2024/04/11 00:02:29;;;;;;;;;;;;;;;;;;5381323;26;19941;-59
2024/04/11 00:04:57;;;;;;;;;;;;;;;;;;5383437;26;19933;-59
2024/04/11 00:07:24;;;;;;;;;;;;;;;;;;5386659;26;20416;-59
2024/04/11 00:09:58;;;;;;;;;;;;;;;;;;5381972;26;19945;-62
2024/04/11 00:12:25;;;;;;;;;;;;;;;;;;5384898;26;21255;-62
2024/04/11 00:14:59;;;;;;;;;;;;;;;;;;5378012;26;19940;-63
2024/04/11 00:17:27;;;;;;;;;;;;;;;;;;5385560;26;19929;-62
2024/04/11 00:19:57;;;;;;;;;;;;;;;;;;5380050;26;19937;-63
2024/04/11 00:22:31;;;;;;;;;;;;;;;;;;5382623;26;20647;-63
2024/04/11 00:24:59;;;;;;;;;;;;;;;;;;5383644;26;19951;-62
2024/04/11 00:27:33;;;;;;;;;;;;;;;;;;5381010;26;19941;-59
2024/04/11 00:30:02;;;;;;;;;;;;;;;;;;5378498;26;19973;-60
2024/04/11 00:32:36;;;;;;;;;;;;;;;;;;5389172;26;19944;-60
2024/04/11 00:35:04;;;;;;;;;;;;;;;;;;5381086;26;19941;-59
2024/04/11 00:37:32;;;;;;;;;;;;;;;;;;5385673;26;19935;-53
2024/04/11 00:40:06;;;;;;;;;;;;;;;;;;5386815;26;19937;-59
2024/04/11 00:42:34;;;;;;;;;;;;;;;;;;5386124;26;19941;-63
2024/04/11 00:45:07;;;;;;;;;;;;;;;;;;5390005;26;20006;-62
2024/04/11 00:47:34;;;;;;;;;;;;;;;;;;5382299;26;19935;-62
2024/04/11 00:50:02;;;;;;;;;;;;;;;;;;5377513;26;20163;-62
2024/04/11 00:52:35;;;;;;;;;;;;;;;;;;5390394;26;19936;-63
2024/04/11 00:55:02;;;;;;;;;;;;;;;;;;5386080;26;20497;-62
2024/04/11 00:57:29;;;;;;;;;;;;;;;;;;5387744;26;20303;-55
2024/04/11 01:00:06;;;;;;;;;;;;;;;;;;5385931;26;20334;-53
2024/04/11 01:02:34;;;;;;;;;;;;;;;;;;5385937;26;19940;-54
2024/04/11 01:05:01;;;;;;;;;;;;;;;;;;5385235;26;20248;-54
2024/04/11 01:07:35;;;;;;;;;;;;;;;;;;5387944;26;19937;-58
2024/04/11 01:10:07;;;;;;;;;;;;;;;;;;5384524;26;20613;-61
2024/04/11 01:12:41;;;;;;;;;;;;;;;;;;5382629;26;20329;-61
2024/04/11 01:15:10;;;;;;;;;;;;;;;;;;5383245;26;19929;-62
2024/04/11 01:17:47;;;;;;;;;;;;;;;;;;5382663;26;19937;-62
2024/04/11 01:20:15;;;;;;;;;;;;;;;;;;5377536;26;19940;-61
2024/04/11 01:22:42;;;;;;;;;;;;;;;;;;5381334;26;19941;-62
2024/04/11 01:25:18;;;;;;;;;;;;;;;;;;5388493;26;19929;-52
2024/04/11 01:27:45;;;;;;;;;;;;;;;;;;5380883;26;20034;-48
2024/04/11 01:30:19;;;;;;;;;;;;;;;;;;5384846;26;20314;-48
2024/04/11 01:32:46;;;;;;;;;;;;;;;;;;5383540;26;20002;-47
2024/04/11 01:35:20;;;;;;;;;;;;;;;;;;5383346;26;20411;-47
2024/04/11 01:37:55;;;;;;;;;;;;;;;;;;5383785;26;19961;-60
2024/04/11 01:40:29;;;;;;;;;;;;;;;;;;5390400;26;20833;-59
2024/04/11 01:42:57;;;;;;;;;;;;;;;;;;5384416;26;19936;-60
2024/04/11 01:45:31;;;;;;;;;;;;;;;;;;5383926;26;19988;-60
2024/04/11 01:47:59;;;;;;;;;;;;;;;;;;5386698;26;19929;-60
2024/04/11 01:50:33;;;;;;;;;;;;;;;;;;5382728;26;19933;-60
2024/04/11 01:53:01;;;;;;;;;;;;;;;;;;5375272;26;22296;-45
2024/04/11 01:55:28;;;;;;;;;;;;;;;;;;5384647;26;19935;-45
2024/04/11 01:58:04;;;;;;;;;;;;;;;;;;5381372;26;19999;-46
2024/04/11 02:00:36;;;;;;;;;;;;;;;;;;5382990;26;21386;-45
2024/04/11 02:03:10;;;;;;;;;;;;;;;;;;5376527;26;20716;-62
2024/04/11 02:05:44;;;;;;;;;;;;;;;;;;5384736;26;20368;-63
2024/04/11 02:08:12;;;;;;;;;;;;;;;;;;5385755;26;19979;-62
2024/04/11 02:10:46;;;;;;;;;;;;;;;;;;5388240;26;19938;-62
2024/04/11 02:13:14;;;;;;;;;;;;;;;;;;5383371;26;19968;-63
2024/04/11 02:15:47;;;;;;;;;;;;;;;;;;5382668;26;19947;-62
2024/04/11 02:18:14;;;;;;;;;;;;;;;;;;5384213;26;19929;-62
2024/04/11 02:20:48;;;;;;;;;;;;;;;;;;5381499;26;19929;-61
2024/04/11 02:23:16;;;;;;;;;;;;;;;;;;5381945;26;19973;-62
2024/04/11 02:25:43;;;;;;;;;;;;;;;;;;5391345;26;19979;-61
2024/04/11 02:28:19;;;;;;;;;;;;;;;;;;5385547;26;20357;-62
2024/04/11 02:30:46;;;;;;;;;;;;;;;;;;5385837;26;20363;-54
2024/04/11 02:33:13;;;;;;;;;;;;;;;;;;5381580;26;19929;-54
2024/04/11 02:35:47;;;;;;;;;;;;;;;;;;5383989;26;20000;-50
2024/04/11 02:38:15;;;;;;;;;;;;;;;;;;5384107;26;19929;-54
2024/04/11 02:40:42;;;;;;;;;;;;;;;;;;5385822;26;19930;-54
2024/04/11 02:43:15;;;;;;;;;;;;;;;;;;5384401;26;19937;-48
2024/04/11 02:45:42;;;;;;;;;;;;;;;;;;5378595;26;19994;-53
2024/04/11 02:48:10;;;;;;;;;;;;;;;;;;5381373;26;19928;-50
2024/04/11 02:50:44;;;;;;;;;;;;;;;;;;5381518;26;19930;-62
2024/04/11 02:53:11;;;;;;;;;;;;;;;;;;5382466;26;19976;-62
2024/04/11 02:55:45;;;;;;;;;;;;;;;;;;5389250;26;19937;-62
2024/04/11 02:58:12;;;;;;;;;;;;;;;;;;5387023;26;19929;-63
2024/04/11 03:00:40;;;;;;;;;;;;;;;;;;5384456;26;20475;-62
2024/04/11 03:03:13;;;;;;;;;;;;;;;;;;5386670;26;20391;-60
2024/04/11 03:05:40;;;;;;;;;;;;;;;;;;5387601;26;19944;-60
2024/04/11 03:08:14;;;;;;;;;;;;;;;;;;5384880;26;19943;-60
2024/04/11 03:10:41;;;;;;;;;;;;;;;;;;5381432;26;19930;-60
2024/04/11 03:13:09;;;;;;;;;;;;;;;;;;5384144;26;20346;-60
2024/04/11 03:15:42;;;;;;;;;;;;;;;;;;5385825;26;19929;-60
2024/04/11 03:18:10;;;;;;;;;;;;;;;;;;5386601;26;19933;-58
2024/04/11 03:20:43;;;;;;;;;;;;;;;;;;5383387;26;19936;-59
2024/04/11 03:23:11;;;;;;;;;;;;;;;;;;5380868;26;19929;-59
2024/04/11 03:25:38;;;;;;;;;;;;;;;;;;5380484;26;19929;-59
2024/04/11 03:28:11;;;;;;;;;;;;;;;;;;5379759;26;20531;-51
2024/04/11 03:30:38;;;;;;;;;;;;;;;;;;5381631;26;19957;-60
2024/04/11 03:33:12;;;;;;;;;;;;;;;;;;5382037;26;19995;-61
2024/04/11 03:35:40;;;;;;;;;;;;;;;;;;5381771;26;19929;-62
2024/04/11 03:38:08;;;;;;;;;;;;;;;;;;5383095;26;19937;-61
2024/04/11 03:40:42;;;;;;;;;;;;;;;;;;5379283;26;19930;-61
2024/04/11 03:43:18;;;;;;;;;;;;;;;;;;5376318;26;19937;-62
2024/04/11 03:45:46;;;;;;;;;;;;;;;;;;5387234;26;19940;-61
2024/04/11 03:48:13;;;;;;;;;;;;;;;;;;5385468;26;19929;-62
2024/04/11 03:50:47;;;;;;;;;;;;;;;;;;5384015;26;19936;-62
2024/04/11 03:53:15;;;;;;;;;;;;;;;;;;5383114;26;19929;-62
2024/04/11 03:57:47;;;;;;;;;;;;;;;;;;5070909;25;8305954;-60
2024/04/11 04:00:24;;;;;;;;;;;;;;;;;;5319460;26;20454;-61
2024/04/11 04:08:57;;;;;;;22.33;3.92;;;;;;;;;;5074456;25;8183438;-66
2024/04/11 04:11:31;;;;;;;21.02;5.20;;;;;;;;;;5408478;26;20662;-66
2024/04/11 04:13:58;;;;;;;;;;;;;;;;;;5410300;26;20003;-67
2024/04/11 04:16:26;;;;;;;24.88;3.58;;;;;;;;;;5373270;26;20625;-66
2024/04/11 04:19:00;;;;;;;24.92;3.83;;;;;;;;;;5295358;26;20004;-67
2024/04/11 04:21:28;;;;;;;24.40;4.18;;;;;;;;;;5404259;26;20348;-50
2024/04/11 04:24:05;;;;;;;22.30;4.95;;;;;;;;;;5405600;26;20029;-60
2024/04/11 04:26:42;;;;;;;37.20;5.20;;;;;;;;;;5403502;26;20215;-66
2024/04/11 04:29:17;;;;;;;25.58;4.65;;;;;;;;;;5407276;26;20620;-66
2024/04/11 04:31:45;;;;;;;31.15;4.38;;;;;;;;;;5409041;26;20362;-67
2024/04/11 04:34:15;;;;;;;32.85;4.95;;;;;;;;;;5400835;26;20018;-67
2024/04/11 04:36:50;;;;;;;27.98;4.63;;;;;;;;;;5400659;26;20018;-67
2024/04/11 04:39:17;;;;;;;26.35;4.63;;;;;;;;;;5401532;26;19999;-67
2024/04/11 04:41:45;;;;;;;23.35;4.55;;;;;;;;;;5404722;26;20011;-53
2024/04/11 04:44:22;;;;;;;22.63;4.50;;;;;;;;;;5398206;26;20027;-54
2024/04/11 04:46:49;;;;;;;28.95;5.90;;;;;;;;;;5393422;26;20008;-54
2024/04/11 04:49:23;;;;;;;30.25;5.10;;;;;;;;;;5398395;26;20007;-52
2024/04/11 04:51:51;;;;;;;23.83;5.25;;;;;;;;;;5394980;26;20004;-55
2024/04/11 04:54:19;;;;;;;;;;;;;;;;;;5401428;26;20218;-53
2024/04/11 04:56:53;;;;;;;14.73;3.42;;;;;;;;;;5401111;26;19991;-52
2024/04/11 04:59:21;;;;;;;17.27;4.40;;;;;;;;;;5395041;26;20027;-53
2024/04/11 05:01:55;;;;;;;15.88;3.60;;;;;;;;;;5380097;26;20004;-53
2024/04/11 05:04:22;;;;;;;18.90;3.72;;;;;;;;;;5389130;26;20012;-53
2024/04/11 05:06:52;;;;;;;16.55;4.47;;;;;;;;;;5396846;26;20022;-53
2024/04/11 05:09:35;;;;;;;11.68;2.75;;;;;;;;;;5411272;26;20018;-54
2024/04/11 05:12:05;;;;;;;12.15;3.80;;;;;;;;;;5406388;26;20084;-55
2024/04/11 05:14:39;;;;;;;16.30;3.00;;;;;;;;;;5407460;26;20470;-54
2024/04/11 05:17:10;;;;;;;;;;;;;;;;;;5407431;26;20076;-60
2024/04/11 05:19:44;;;;;;;13.85;3.85;;;;;;;;;;5392001;26;20279;-54
2024/04/11 05:22:11;;;;;;;;;;;;;;;;;;5386747;26;20029;-55
2024/04/11 05:24:39;;;;;;;9.30;3.30;;;;;;;;;;5391696;26;19932;-49
2024/04/11 05:27:20;;;;;;;13.25;3.42;;;;;;;;;;5396993;26;20007;-48
2024/04/11 05:29:47;;;;;;;12.95;3.75;;;;;;;;;;5393348;26;20026;-50
2024/04/11 05:32:22;;;;;;;14.25;3.70;;;;;;;;;;5396624;26;20003;-53
2024/04/11 05:34:49;;;;;;;10.18;3.85;;;;;;;;;;5393230;26;20080;-61
2024/04/11 05:37:17;;;;;;;14.75;4.85;;;;;;;;;;5391687;26;20012;-61
2024/04/11 05:39:51;;;;;;;13.80;4.97;;;;;;;;;;5393740;26;20486;-60
2024/04/11 05:42:19;;;;;;;13.30;4.50;;;;;;;;;;5395359;26;20109;-60
2024/04/11 05:44:54;;;;;;;18.35;4.78;;;;;;;;;;5391648;26;20096;-61
2024/04/11 05:47:24;;;;;;;13.10;5.32;;;;;;;;;;5395573;26;20007;-63
2024/04/11 05:49:53;;;;;;;17.08;5.10;;;;;;;;;;5390046;26;20011;-62
2024/04/11 05:52:27;;;;;;;15.45;5.07;;;;;;;;;;5389681;26;20007;-62
2024/04/11 05:54:55;;;;;;;12.43;4.75;;;;;;;;;;5388839;26;20478;-62
2024/04/11 05:57:22;;;;;;;14.23;5.60;;;;;;;;;;5391978;26;20004;-62
2024/04/11 05:59:56;;;;;;;16.90;5.43;;;;;;;;;;5391501;26;20015;-63
2024/04/11 06:02:23;;;;;;;13.55;5.07;;;;;;;;;;5393285;26;20019;-62
2024/04/11 06:04:58;;;;;;;13.48;4.75;;;;;;;;;;5394709;26;20014;-68
2024/04/11 06:07:32;;;;;;;18.77;5.90;;;;;;;;;;5390840;26;19999;-67
2024/04/11 06:10:11;;;;;;;13.00;5.53;;;;;;;;;;5385705;26;20008;-67
2024/04/11 06:12:39;;;;;;;19.05;6.10;;;;;;;;;;5391126;26;20345;-68
2024/04/11 06:15:13;;;;;;;16.13;5.18;;;;;;;;;;5392091;26;20462;-62
2024/04/11 06:17:41;;;;;;;18.48;6.20;;;;;;;;;;5387872;26;20004;-61
2024/04/11 06:20:16;;;;;;;17.13;4.75;;;;;;;;;;5390891;26;20004;-61
2024/04/11 06:22:49;;;;;;;16.88;5.70;;;;;;;;;;5386412;26;20417;-62
2024/04/11 06:25:23;;;;;;;20.23;5.95;;;;;;;;;;5391021;26;20101;-62
2024/04/11 06:27:52;;;;;;;;;;;;;;;;;;5387934;26;20008;-61
2024/04/11 06:30:26;;;;;;;13.88;5.25;;;;;;;;;;5394126;26;19925;-60
2024/04/11 06:33:02;;;;;;;13.77;5.65;;;;;;;;;;5386565;26;20013;-54
2024/04/11 06:35:30;;;;;;;17.08;5.68;;;;;;;;;;5398303;26;20011;-54
2024/04/11 06:37:59;;;;;;;17.85;5.28;;;;;;;;;;5394799;26;20036;-53
2024/04/11 06:40:33;;;;;;;22.38;5.70;;;;;;;;;;5390651;26;20003;-55
2024/04/11 06:43:01;;;;;;;;;;;;;;;;;;5392480;26;20022;-54
2024/04/11 06:45:30;;;;;;;12.43;4.95;;;;;;;;;;5392103;26;20310;-51
2024/04/11 06:48:04;;;;;;;14.20;4.50;;;;;;;;;;5389654;26;20034;-53
2024/04/11 06:50:31;;;;;;;;;;;;;;;;;;5396535;26;19999;-52
2024/04/11 06:52:59;;;;;;;12.75;3.90;;;;;;;;;;5391128;26;19925;-54
2024/04/11 06:55:34;;;;;;;11.55;4.40;;;;;;;;;;5389423;26;20020;-52
2024/04/11 06:58:02;;;;;;;15.15;4.22;;;;;;;;;;5389381;26;20081;-52
2024/04/11 07:00:36;;;;;;;11.65;4.03;;;;;;;;;;5389555;26;20106;-60
2024/04/11 07:03:13;;;;;;;15.25;4.20;;;;;;;;;;5392041;26;20657;-60
2024/04/11 07:05:52;;;;;;;8.73;3.53;;;;;;;;;;5387936;26;20014;-60
2024/04/11 07:08:31;;;;;;;11.88;3.35;;;;;;;;;;5391161;26;20015;-60
2024/04/11 07:14:03;;;;;;;11.57;3.47;;;;;;;;;;5378754;26;20022;-60
2024/04/11 07:16:44;;;;;;;6.78;3.58;;;;;;;;;;5390559;26;20017;-60
2024/04/11 07:19:12;;;;;;;11.68;3.13;;;;;;;;;;5387367;26;20671;-60
2024/04/11 07:21:48;;;;;;;6.45;3.42;;;;;;;;;;5390931;26;20089;-60
2024/04/11 07:24:15;;;;;;;10.63;3.10;;;;;;;;;;5386348;26;20797;-59
2024/04/11 07:26:43;;;;;;;10.55;3.47;;;;;;;;;;5393265;26;20540;-60
2024/04/11 07:29:24;;;;;;;10.50;2.85;;;;;;;;;;5393953;26;20084;-60
2024/04/11 07:31:52;;;;;;;9.63;3.40;;;;;;;;;;5388951;26;20012;-60
2024/04/11 07:34:28;;;;;;;5.35;3.42;;;;;;;;;;5389741;26;20012;-60
2024/04/11 07:36:56;;;;;;;8.95;3.20;;;;;;;;;;5389558;26;20008;-60
2024/04/11 07:39:32;;;;;;;11.73;3.65;;;;;;;;;;5395919;26;20004;-50
2024/04/11 07:42:18;;;;;;;13.15;3.55;;;;;;;;;;5393966;26;20110;-60
2024/04/11 07:44:52;;;;;;;8.43;2.75;;;;;;;;;;5396978;26;20111;-60
2024/04/11 07:47:21;;;;;;;;;;;;;;;;;;5393343;26;20019;-60
2024/04/11 07:49:58;;;;;;;9.85;3.47;;;;;;;;;;5393409;26;19975;-60
2024/04/11 07:52:32;;;;;;;12.85;3.88;;;;;;;;;;5389562;26;20015;-60
2024/04/11 07:55:00;;;;;;;14.32;4.57;;;;;;;;;;5393100;26;20002;-60
2024/04/11 07:57:34;;;;;;;9.57;3.90;;;;;;;;;;5393816;26;20004;-67
2024/04/11 08:00:01;;;;;;;10.55;4.45;;;;;;;;;;5389289;26;20088;-66
2024/04/11 08:02:35;;;;;;;14.73;5.30;;;;;;;;;;5396681;26;20113;-67
2024/04/11 08:05:04;;;;;;;12.05;4.47;;;;;;;;;;5388351;26;20022;-67
2024/04/11 08:07:31;;;;;;;11.65;4.10;;;;;;;;;;5384302;26;20007;-60
2024/04/11 08:10:13;;;;;;;10.10;3.70;;;;;;;;;;5386918;26;20008;-66
2024/04/11 08:12:41;;;;;;;12.30;4.15;;;;;;;;;;5384406;26;20560;-67
2024/04/11 08:15:15;;;;;;;13.10;3.90;;;;;;;;;;5386108;26;20081;-67
2024/04/11 08:17:49;;;;;;;15.15;4.70;;;;;;;;;;5389706;26;20034;-66
2024/04/11 08:20:16;;;;;;;21.45;4.45;;;;;;;;;;5389809;26;20730;-67
2024/04/11 08:22:45;;;;;;;11.25;4.25;;;;;;;;;;5388735;26;19995;-66
2024/04/11 08:25:19;;;;;;;12.73;4.18;;;;;;;;;;5388912;26;20011;-48
2024/04/11 08:27:48;;;;;;;14.02;3.95;;;;;;;;;;5391997;26;20027;-49
2024/04/11 08:30:23;;;;;;;10.23;3.58;;;;;;;;;;5391781;26;20057;-48
2024/04/11 08:32:59;;;;;;;11.60;3.28;;;;;;;;;;5389783;26;20002;-50
2024/04/11 08:35:27;;;;;;;7.32;3.08;;;;;;;;;;5390016;26;20000;-50
2024/04/11 08:37:54;;;;;;;;;;;;;;;;;;5392527;26;20010;-62
2024/04/11 08:40:30;;;;;;;7.95;3.30;;;;;;;;;;5389308;26;21786;-62
2024/04/11 08:42:57;;;;;;;5.00;2.97;;;;;;;;;;5394009;26;20048;-63
2024/04/11 08:45:26;;;;;;;8.43;3.30;;;;;;;;;;5389240;26;20011;-63
2024/04/11 08:48:01;;;;;;;9.35;3.30;;;;;;;;;;5390290;26;20015;-62
2024/04/11 08:50:29;;;;;;;6.20;3.03;;;;;;;;;;5365681;26;20007;-63
2024/04/11 08:52:57;;;;;;;7.95;3.10;;;;;;;;;;5388865;26;20039;-63
2024/04/11 08:55:31;;;;;;;6.82;3.13;;;;;;;;;;5391902;26;19995;-51
2024/04/11 08:57:59;;;;;;;;;;;;;;;;;;5399393;26;20124;-49
2024/04/11 09:00:35;;;;;;;6.25;2.50;;;;;;;;;;5395830;26;19925;-49
2024/04/11 09:03:03;;;;;;;7.80;3.00;;;;;;;;;;5392328;26;20018;-51
2024/04/11 09:05:30;;;;;;;5.38;2.50;;;;;;;;;;5394859;26;20003;-48
2024/04/11 09:08:11;;;;;;;5.30;2.47;;;;;;;;;;5387762;26;20726;-61
2024/04/11 09:10:45;;;;;;;12.88;3.05;;;;;;;;;;5389842;26;20004;-62
2024/04/11 09:13:22;;;;;;;3.53;1.90;;;;;;;;;;5390009;26;20474;-62
2024/04/11 09:16:05;;;;;;;6.20;2.10;;;;;;;;;;5394164;26;23226;-61
2024/04/11 09:18:39;;;;;;;7.20;2.72;;;;;;;;;;5388747;26;20010;-61
2024/04/11 09:21:07;;;;;;;8.70;2.22;;;;;;;;;;5392632;26;20024;-62
2024/04/11 09:23:44;;;;;;;9.73;2.35;;;;;;;;;;5392034;26;20004;-50
2024/04/11 09:26:18;;;;;;;4.95;2.13;;;;;;;;;;5391331;26;20356;-50
2024/04/11 09:28:45;;;;;;;6.07;2.65;;;;;;;;;;5393325;26;21765;-51
2024/04/11 09:31:26;;;;;;;4.63;2.38;;;;;;;;;;5390349;26;20393;-52
2024/04/11 09:33:54;;;;;;;6.72;2.45;;;;;;;;;;5393292;26;20032;-60
2024/04/11 09:36:29;;;;;;;7.80;2.08;;;;;;;;;;5395364;26;20470;-61
2024/04/11 09:39:04;;;;;;;5.07;2.00;;;;;;;;;;5396357;26;20015;-61
2024/04/11 09:41:37;;;;;;;8.73;1.80;;;;;;;;;;5395482;26;19996;-61
2024/04/11 09:44:16;;;;;;;3.80;1.90;;;;;;;;;;5384908;26;20059;-61
2024/04/11 09:46:44;;;;;;;5.18;1.95;;;;;;;;;;5392236;26;20000;-62
2024/04/11 09:49:23;;;;;;;4.50;1.58;;;;;;;;;;5389368;26;20078;-62
2024/04/11 09:51:51;;;;;;;6.78;1.58;;;;;;;;;;5395538;26;20385;-60
2024/04/11 09:54:25;;;;;;;7.97;2.00;;;;;;;;;;5385244;26;20004;-60
2024/04/11 09:56:56;;;;;;;6.57;1.75;;;;;;;;;;5392460;26;19999;-60
2024/04/11 09:59:24;;;;;;;5.50;1.80;;;;;;;;;;5387871;26;20070;-60
2024/04/11 10:02:01;;;;;;;3.40;1.20;;;;;;;;;;5392128;26;20014;-67
2024/04/11 10:04:35;;;;;;;3.75;1.17;;;;;;;;;;5390976;26;20015;-60
2024/04/11 10:07:16;;;;;;;2.97;0.82;;;;;;;;;;5391997;26;20019;-60
2024/04/11 10:09:52;;;;;;;3.30;0.95;;;;;;;;;;5386764;26;20362;-61
2024/04/11 10:12:28;;;;;;;2.58;0.82;;;;;;;;;;5389654;26;20076;-60
2024/04/11 10:14:59;;;;;;;3.50;1.10;;;;;;;;;;5392521;26;20012;-60
2024/04/11 10:17:36;;;;;;;4.07;1.17;;;;;;;;;;5393223;26;20022;-60
2024/04/11 10:20:12;;;;;;;1.65;0.90;;;;;;;;;;5386898;26;20447;-62
2024/04/11 10:22:47;;;;;;;3.75;1.30;;;;;;;;;;5389890;26;20088;-63
2024/04/11 10:25:17;;;;;;;5.30;1.35;;;;;;;;;;5390421;26;20467;-61
2024/04/11 10:27:47;;;;;;;4.65;1.48;;;;;;;;;;5395474;26;20007;-62
2024/04/11 10:30:23;;;;;;;6.25;1.65;;;;;;;;;;5398587;26;20078;-61
2024/04/11 10:32:57;;;;;;;5.10;1.50;;;;;;;;;;5389803;26;20056;-49
2024/04/11 10:35:33;;;;;;;6.22;1.95;;;;;;;;;;5394326;26;20072;-48
2024/04/11 10:38:12;;;;;;;11.73;3.03;;;;;;;;;;5384761;26;20521;-52
2024/04/11 10:40:46;;;;;;;16.60;3.25;;;;;;;;;;5389088;26;20011;-50
2024/04/11 10:43:24;;;;;;;17.13;3.22;;;;;;;;;;5393183;26;20011;-54
2024/04/11 10:45:57;;;;;;;15.52;3.03;;;;;;;;;;5364415;26;20054;-54
2024/04/11 10:48:25;;;;;;;21.75;3.42;;;;;;;;;;5393382;26;20454;-62
2024/04/11 10:50:59;;;;;;;17.15;3.22;;;;;;;;;;5393640;26;19999;-61
2024/04/11 10:53:33;;;;;;;14.30;2.97;;;;;;;;;;5390929;26;20014;-61
2024/04/11 10:56:20;;;;;;;14.05;2.80;;;;;;;;;;5391696;26;19999;-62
2024/04/11 10:58:55;;;;;;;19.25;4.15;;;;;;;;;;5392045;26;20073;-66
2024/04/11 11:01:26;;;;;;;18.70;3.55;;;;;;;;;;5387961;26;20015;-60
2024/04/11 11:03:58;;;;;;;20.35;4.03;;;;;;;;;;5393783;26;21590;-60
2024/04/11 11:06:35;;;;;;;26.08;4.28;;;;;;;;;;5388876;26;20004;-60
2024/04/11 11:09:13;;;;;;;21.60;3.67;;;;;;;;;;5389085;26;20004;-60
2024/04/11 11:11:46;;;;;;;28.15;4.72;;;;;;;;;;5391890;26;20013;-60
2024/04/11 11:14:18;;;;;;;32.13;5.30;;;;;;;;;;5391207;26;20014;-61
2024/04/11 11:16:47;;;;;;;29.45;4.72;;;;;;;;;;5365245;26;20015;-62
2024/04/11 11:19:22;;;;;;;31.85;4.95;;;;;;;;;;5375618;26;20189;-61
2024/04/11 11:21:50;;;;;;;42.45;6.90;;;;;;;;;;5388440;26;20000;-61
2024/04/11 11:24:23;;;;;;;47.60;6.28;;;;;;;;;;5396143;26;20007;-61
2024/04/11 11:26:58;;;;;;;42.78;6.20;;;;;;;;;;5394381;26;20011;-63
2024/04/11 11:29:32;;;;;;;44.38;7.00;;;;;;;;;;5392724;26;20476;-50
2024/04/11 11:32:04;;;;;;;;;;;;;;;;;;5390581;26;20385;-50
2024/04/11 11:34:42;;;;;;;51.15;6.28;;;;;;;;;;5384378;26;19932;-51
2024/04/11 11:37:21;;;;;;;37.55;5.75;;;;;;;;;;5391027;26;20044;-52
2024/04/11 11:39:55;;;;;;;21.52;4.45;;;;;;;;;;5392944;26;20011;-50
2024/04/11 11:42:32;;;;;;;32.22;5.95;;;;;;;;;;5390523;26;20003;-51
2024/04/11 11:47:35;;;;;;;35.45;6.88;;;;;;;;;;5392548;26;20035;-64
2024/04/11 11:50:16;;;;;;;46.70;7.25;;;;;;;;;;5389646;26;20015;-64
2024/04/11 11:52:45;;;;;;;41.33;6.95;;;;;;;;;;5383694;26;20077;-65
2024/04/11 11:55:25;;;;;;;48.38;7.32;;;;;;;;;;5391418;26;20459;-64
2024/04/11 11:58:02;;;;;;;53.10;6.68;;;;;;;;;;5386163;26;20751;-61
2024/04/11 12:00:49;;;;;;;46.90;6.50;;;;;;;;;;5390014;26;20007;-60
2024/04/11 12:03:21;;;;;;;48.55;7.63;;;;;;;;;;5392723;26;20003;-60
2024/04/11 12:06:04;;;;;;;46.17;7.95;;;;;;;;;;5379422;26;20085;-61
2024/04/11 12:08:39;;;;;;;68.45;9.02;;;;;;;;;;5369591;26;20004;-61
2024/04/11 12:11:14;;;;;;;58.35;8.60;;;;;;;;;;5391472;26;20004;-61
2024/04/11 12:14:02;;;;;;;42.55;6.78;;;;;;;;;;5391976;26;20077;-60
2024/04/11 12:16:43;;;;;;;53.40;6.55;;;;;;;;;;5395812;26;20015;-60
2024/04/11 12:19:10;;;;;;;45.38;6.45;;;;;;;;;;5383919;26;20012;-61
2024/04/11 12:21:44;;;;;;;57.88;8.38;;;;;;;;;;5388984;26;20011;-61
2024/04/11 12:24:18;;;;;;;53.17;7.97;;;;;;;;;;5389146;26;20004;-61
2024/04/11 12:26:52;;;;;;;55.03;9.15;;;;;;;;;;5384162;26;20529;-60
2024/04/11 12:29:31;;;;;;;51.22;7.63;;;;;;;;;;5385943;26;20003;-60
2024/04/11 12:32:13;;;;;;;51.10;7.80;;;;;;;;;;5380681;26;20000;-60
2024/04/11 12:34:42;;;;;;;53.53;6.95;;;;;;;;;;5393449;26;20015;-61
2024/04/11 12:37:17;;;;;;;53.17;6.63;;;;;;;;;;5398930;26;20096;-60
2024/04/11 12:39:56;;;;;;;40.38;7.10;;;;;;;;;;5395146;26;21133;-61
2024/04/11 12:42:30;;;;;;;48.88;6.43;;;;;;;;;;5393249;26;20011;-61
2024/04/11 12:45:07;;;;;;;37.85;6.97;;;;;;;;;;5393298;26;20004;-61
2024/04/11 12:47:39;;;;;;;54.78;8.15;;;;;;;;;;5377824;26;20019;-60
2024/04/11 12:50:13;;;;;;;48.58;7.15;;;;;;;;;;5388890;26;20016;-60
2024/04/11 12:52:44;;;;;;;57.88;8.43;;;;;;;;;;5392414;26;20012;-50
2024/04/11 12:55:12;;;;;;;52.28;8.18;;;;;;;;;;5390559;26;20007;-65
2024/04/11 12:57:51;;;;;;;50.10;7.05;;;;;;;;;;5398070;26;20003;-65
2024/04/11 13:00:43;;;;;;;52.63;8.02;;;;;;;;;;5395371;26;20016;-64
2024/04/11 13:03:19;;;;;;;48.15;6.75;;;;;;;;;;5394862;26;20014;-64
2024/04/11 13:05:53;;;;;;;41.80;6.35;;;;;;;;;;5394551;26;20356;-65
2024/04/11 13:08:34;;;;;;;57.03;7.85;;;;;;;;;;5390133;26;20028;-65
2024/04/11 13:11:09;;;;;;;46.35;8.55;;;;;;;;;;5392394;26;20016;-63
2024/04/11 13:13:44;;;;;;;58.47;8.35;;;;;;;;;;5397033;26;19999;-64
2024/04/11 13:16:11;;;;;;;46.78;7.30;;;;;;;;;;5393646;26;20088;-65
2024/04/11 13:18:39;;;;;;;;;;;;;;;;;;5394201;26;20738;-65
2024/04/11 13:21:30;;;;;;;64.93;10.30;;;;;;;;;;5366646;26;19925;-61
2024/04/11 13:24:10;;;;;;;49.53;9.15;;;;;;;;;;5387893;26;20011;-65
2024/04/11 13:26:50;;;;;;;49.13;8.20;;;;;;;;;;5389238;26;20083;-65
2024/04/11 13:29:27;;;;;;;60.92;8.68;;;;;;;;;;5390184;26;20008;-65
2024/04/11 13:32:04;;;;;;;69.57;7.90;;;;;;;;;;5391969;26;20117;-65
2024/04/11 13:34:59;;;;;;;56.25;8.25;;;;;;;;;;5389278;26;20021;-65
2024/04/11 13:37:37;;;;;;;50.75;7.60;;;;;;;;;;5371049;26;20528;-65
2024/04/11 13:42:55;;;;;;;49.13;8.07;;;;;;;;;;5389985;26;20015;-65
2024/04/11 13:45:29;;;;;;;46.42;7.75;;;;;;;;;;5392867;26;20545;-65
2024/04/11 13:48:03;;;;;;;45.28;7.55;;;;;;;;;;5391379;26;20019;-65
2024/04/11 13:50:52;;;;;;;;;;;;;;;;;;5391145;26;20370;-61
2024/04/11 13:53:32;;;;;;;47.00;7.63;;;;;;;;;;5390726;26;19932;-61
2024/04/11 13:56:04;;;;;;;47.90;9.00;;;;;;;;;;5391742;26;19999;-61
2024/04/11 13:58:38;;;;;;;54.95;8.27;;;;;;;;;;5392485;26;20062;-61
2024/04/11 14:01:05;;;;;;;46.70;7.70;;;;;;;;;;5390353;26;20471;-61
2024/04/11 14:03:45;;;;;;;42.33;6.95;;;;;;;;;;5395438;26;20019;-61
2024/04/11 14:08:53;;;;;;;43.85;6.85;;;;;;;;;;5375728;26;20486;-54
2024/04/11 14:11:27;;;;;;;42.00;7.35;;;;;;;;;;5356193;26;22501;-52
2024/04/11 14:14:01;;;;;;;41.08;8.13;;;;;;;;;;5358650;26;20004;-53
2024/04/11 14:16:53;;;;;;;56.55;7.80;;;;;;;;;;5360813;26;20367;-54
2024/04/11 14:19:51;;;;;;;42.15;8.55;;;;;;;;;;5354488;26;20507;-61
2024/04/11 14:22:29;;;;;;;45.60;7.65;;;;;;;;;;5358172;26;20013;-62
2024/04/11 14:25:29;;;;;;;44.97;7.68;;;;;;;;;;5362909;26;20012;-61
2024/04/11 14:27:54;;;;;;;49.45;7.05;;;;;;;;;;5350813;26;20047;-62
2024/04/11 14:30:33;;;;;;;39.70;7.18;;;;;;;;;;4407014;26;10000573;-62
2024/04/11 14:33:12;;;;;;;42.28;7.45;;;;;;;;;;5333682;26;20482;-62
2024/04/11 14:38:32;;;;;;;44.78;7.18;;;;;;;;;;5330514;26;20009;-61
2024/04/11 14:41:06;;;;;;;47.72;8.35;;;;;;;;;;5327834;26;20375;-61
2024/04/11 14:43:34;;;;;;;42.97;6.88;;;;;;;;;;5329244;26;20000;-61
2024/04/11 14:46:01;;;;;;;40.85;6.80;;;;;;;;;;5333177;26;20012;-62
2024/04/11 14:48:36;;;;;;;41.65;6.75;;;;;;;;;;5329490;26;20009;-65
2024/04/11 14:51:08;;;;;;;48.13;7.70;;;;;;;;;;5325301;26;20001;-64
2024/04/11 14:53:46;;;;;;;42.78;7.43;;;;;;;;;;5328793;26;20114;-63
2024/04/11 14:56:17;;;;;;;41.50;7.13;;;;;;;;;;5332620;26;20052;-64
2024/04/11 14:58:59;;;;;;;40.60;6.63;;;;;;;;;;4415154;26;10000191;-64
2024/04/11 15:01:32;;;;;;;44.10;7.38;;;;;;;;;;5365005;26;20040;-64
2024/04/11 15:04:06;;;;;;;34.70;6.22;;;;;;;;;;5368585;26;20019;-63
2024/04/11 15:06:34;;;;;;;;;;;;;;;;;;5368494;26;20023;-65
2024/04/11 15:09:26;;;;;;;53.00;7.32;;;;;;;;;;5382192;26;19948;-62
2024/04/11 15:11:57;;;;;;;64.85;8.10;;;;;;;;;;5399543;26;20007;-63
2024/04/11 15:14:26;;;;;;;33.25;5.97;;;;;;;;;;5396342;26;20007;-60
2024/04/11 15:17:19;;;;;;;50.65;7.57;;;;;;;;;;5400678;26;20366;-61
2024/04/11 15:19:52;;;;;;;40.13;6.40;;;;;;;;;;5395469;26;20021;-61
2024/04/11 15:22:23;;;;;;;49.08;7.25;;;;;;;;;;5398717;26;20058;-61
2024/04/11 15:24:52;;;;;;;36.78;5.93;;;;;;;;;;5398747;26;20008;-60
2024/04/11 15:27:29;;;;;;;39.92;7.05;;;;;;;;;;5395103;26;20519;-61
2024/04/11 15:30:03;;;;;;;48.42;7.05;;;;;;;;;;5399173;26;20004;-61
2024/04/11 15:32:38;;;;;;;42.83;7.57;;;;;;;;;;5397332;26;20044;-50
2024/04/11 15:35:12;;;;;;;48.55;7.07;;;;;;;;;;5399458;26;20040;-51
2024/04/11 15:38:16;;;;;;;47.38;7.53;;;;;;;;;;5399584;26;20011;-52
2024/04/11 15:40:51;;;;;;;40.80;7.00;;;;;;;;;;5395234;26;20017;-50
2024/04/11 15:43:28;;;;;;;53.97;8.57;;;;;;;;;;5392906;26;20030;-60
2024/04/11 15:46:07;;;;;;;34.25;5.28;;;;;;;;;;5390869;26;20104;-50
2024/04/11 15:48:40;;;;;;;42.42;7.53;;;;;;;;;;5396068;26;20003;-49
2024/04/11 15:51:08;;;;;;;;;;;;;;;;;;5395770;26;20015;-49
2024/04/11 15:53:38;;;;;;;44.90;7.28;;;;;;;;;;5391120;26;19924;-49
2024/04/11 15:56:13;;;;;;;51.83;6.97;;;;;;;;;;5392794;26;20076;-53
2024/04/11 15:58:54;;;;;;;47.15;7.30;;;;;;;;;;5390668;26;20010;-52
2024/04/11 16:01:28;;;;;;;41.10;6.40;;;;;;;;;;5400543;26;20007;-60
2024/04/11 16:03:56;;;;;;;;;;;;;;;;;;5395242;26;20011;-60
2024/04/11 16:06:31;;;;;;;50.78;7.43;;;;;;;;;;5394568;26;19925;-60